Time;durP1;ratioP1;P1;durP2;ratioP2;P2;SDS_P1;SDS_P2;PMS_P1;PMS_P2;Temp;Humidity;BMP_temperature;BMP_pressure;BME280_temperature;BME280_humidity;BME280_pressure;Samples;Min_cycle;Max_cycle;Signal;HPM_P1;HPM_P2
2022/09/27 00:00:41;;;;;;;;;;;;;;;;;;5055260;28;19917;-84
2022/09/27 00:03:07;;;;;;;;;;;;;;;;;;5037708;28;19917;-84
2022/09/27 00:05:32;;;;;;;;;;;;;;;;;;5055134;28;19923;-83
2022/09/27 00:07:57;;;;;;;;;;;;;;;;;;5053784;28;19917;-83
2022/09/27 00:10:23;;;;;;;;;;;;;;;;;;5037406;28;19995;-83
2022/09/27 00:12:48;;;;;;;;;;;;;;;;;;5054664;28;20263;-84
2022/09/27 00:15:14;;;;;;;;;;;;;;;;;;5054768;28;19916;-83
2022/09/27 00:17:39;;;;;;;;;;;;;;;;;;5037066;28;19913;-83
2022/09/27 00:20:05;;;;;;;;;;;;;;;;;;5036297;28;19921;-84
2022/09/27 00:22:31;;;;;;;;;;;;;;;;;;5054763;28;19923;-82
2022/09/27 00:24:56;;;;;;;;;;;;;;;;;;5054710;28;19913;-81
2022/09/27 00:27:21;;;;;;;;;;;;;;;;;;5054630;28;19956;-82
2022/09/27 00:29:47;;;;;;;;;;;;;;;;;;5054928;28;20242;-81
2022/09/27 00:32:12;;;;;;;;;;;;;;;;;;5054659;28;20011;-82
2022/09/27 00:34:38;;;;;;;;;;;;;;;;;;5020960;28;19951;-83
2022/09/27 00:37:03;;;;;;;;;;;;;;;;;;5037001;28;19916;-84
2022/09/27 00:39:28;;;;;;;;;;;;;;;;;;5054805;28;20249;-84
2022/09/27 00:41:54;;;;;;;;;;;;;;;;;;5057579;28;19917;-84
2022/09/27 00:44:28;;;;;;;;;;;;;;;;;;5059227;28;20000;-82
2022/09/27 00:47:12;;;;;;;;;;;;;;;;;;5054833;28;19917;-82
2022/09/27 00:49:39;;;;;;;;;;;;;;;;;;5055078;28;19917;-83
2022/09/27 00:52:10;;;;;;;;;;;;;;;;;;5054405;28;20242;-82
2022/09/27 00:54:35;;;;;;;;;;;;;;;;;;5054453;28;19917;-82
2022/09/27 00:57:04;;;;;;;;;;;;;;;;;;5036615;28;19924;-82
2022/09/27 00:59:33;;;;;;;;;;;;;;;;;;5037511;28;19923;-83
2022/09/27 01:01:58;;;;;;;;;;;;;;;;;;5020078;28;19971;-82
2022/09/27 01:04:25;;;;;;;;;;;;;;;;;;5020348;28;20356;-83
2022/09/27 01:06:50;;;;;;;;;;;;;;;;;;5054371;28;19916;-83
2022/09/27 01:09:16;;;;;;;;;;;;;;;;;;5054376;28;19916;-83
2022/09/27 01:11:50;;;;;;;;;;;;;;;;;;5036445;28;19967;-83
2022/09/27 01:14:24;;;;;;;;;;;;;;;;;;5036655;28;19917;-83
2022/09/27 01:16:53;;;;;;;;;;;;;;;;;;5036300;28;19917;-83
2022/09/27 01:19:40;;;;;;;;;;;;;;;;;;5036773;28;19916;-84
2022/09/27 01:22:12;;;;;;;;;;;;;;;;;;5036433;28;20443;-83
2022/09/27 01:24:57;;;;;;;;;;;;;;;;;;5036621;28;19916;-83
2022/09/27 01:27:40;;;;;;;;;;;;;;;;;;5054147;28;19917;-83
2022/09/27 01:30:25;;;;;;;;;;;;;;;;;;5054224;28;20223;-82
2022/09/27 01:33:11;;;;;;;;;;;;;;;;;;5037923;28;19966;-82
2022/09/27 01:35:36;;;;;;;;;;;;;;;;;;5023999;28;19920;-83
2022/09/27 01:38:20;;;;;;;;;;;;;;;;;;5057370;28;20253;-83
2022/09/27 01:40:53;;;;;;;;;;;;;;;;;;5058111;28;19928;-83
2022/09/27 01:43:23;;;;;;;;;;;;;;;;;;5040326;28;19921;-84
2022/09/27 01:45:50;;;;;;;;;;;;;;;;;;5039939;28;19916;-82
2022/09/27 01:48:20;;;;;;;;;;;;;;;;;;5040177;28;19916;-83
2022/09/27 01:51:06;;;;;;;;;;;;;;;;;;5024049;28;19924;-82
2022/09/27 01:53:36;;;;;;;;;;;;;;;;;;5057246;28;20384;-82
2022/09/27 01:56:01;;;;;;;;;;;;;;;;;;5039969;28;19924;-82
2022/09/27 01:58:38;;;;;;;;;;;;;;;;;;5039946;28;19921;-83
2022/09/27 02:01:04;;;;;;;;;;;;;;;;;;5039615;28;19948;-83
2022/09/27 02:03:31;;;;;;;;;;;;;;;;;;5057936;28;20325;-83
2022/09/27 02:06:17;;;;;;;;;;;;;;;;;;5057795;28;19917;-82
2022/09/27 02:08:59;;;;;;;;;;;;;;;;;;5056865;28;19917;-83
2022/09/27 02:11:25;;;;;;;;;;;;;;;;;;5041402;28;19916;-82
2022/09/27 02:13:53;;;;;;;;;;;;;;;;;;5039634;28;19917;-82
2022/09/27 02:16:35;;;;;;;;;;;;;;;;;;5057066;28;19913;-82
2022/09/27 02:19:03;;;;;;;;;;;;;;;;;;5040307;28;19928;-84
2022/09/27 02:21:48;;;;;;;;;;;;;;;;;;5057582;28;19912;-82
2022/09/27 02:24:15;;;;;;;;;;;;;;;;;;5046408;28;20379;-82
2022/09/27 02:26:42;;;;;;;;;;;;;;;;;;5057257;28;19913;-84
2022/09/27 02:29:18;;;;;;;;;;;;;;;;;;5039389;28;19917;-83
2022/09/27 02:31:43;;;;;;;;;;;;;;;;;;5039310;28;19917;-83
2022/09/27 02:34:27;;;;;;;;;;;;;;;;;;5057116;28;20284;-83
2022/09/27 02:36:53;;;;;;;;;;;;;;;;;;5057458;28;19932;-83
2022/09/27 02:39:18;;;;;;;;;;;;;;;;;;5039377;28;19917;-83
2022/09/27 02:41:44;;;;;;;;;;;;;;;;;;5039210;28;20257;-82
2022/09/27 02:44:10;;;;;;;;;;;;;;;;;;5056337;28;20325;-82
2022/09/27 02:46:43;;;;;;;;;;;;;;;;;;5057002;28;20230;-83
2022/09/27 02:49:19;;;;;;;;;;;;;;;;;;5057144;28;19925;-83
2022/09/27 02:52:03;;;;;;;;;;;;;;;;;;5056884;28;20297;-82
2022/09/27 02:54:31;;;;;;;;;;;;;;;;;;5056864;28;19920;-83
2022/09/27 02:57:25;;;;;;;;;;;;;;;;;;5056646;28;20011;-82
2022/09/27 03:00:00;;;;;;;;;;;;;;;;;;5054894;28;19923;-83
2022/09/27 03:02:42;;;;;;;;;;;;;;;;;;5055784;28;19920;-83
2022/09/27 03:05:09;;;;;;;;;;;;;;;;;;5038973;28;19916;-83
2022/09/27 03:07:34;;;;;;;;;;;;;;;;;;5038895;28;19966;-83
2022/09/27 03:09:59;;;;;;;;;;;;;;;;;;5038894;28;19920;-83
2022/09/27 03:12:25;;;;;;;;;;;;;;;;;;5038594;28;19917;-83
2022/09/27 03:14:51;;;;;;;;;;;;;;;;;;5056423;28;19917;-83
2022/09/27 03:17:16;;;;;;;;;;;;;;;;;;5056599;28;19912;-83
2022/09/27 03:19:41;;;;;;;;;;;;;;;;;;5056319;28;19916;-83
2022/09/27 03:22:07;;;;;;;;;;;;;;;;;;5056293;28;19917;-83
2022/09/27 03:24:32;;;;;;;;;;;;;;;;;;5038616;28;19919;-83
2022/09/27 03:26:58;;;;;;;;;;;;;;;;;;5038143;28;20007;-84
2022/09/27 03:29:23;;;;;;;;;;;;;;;;;;5056403;28;20015;-82
2022/09/27 03:31:48;;;;;;;;;;;;;;;;;;5056027;28;19975;-82
2022/09/27 03:34:14;;;;;;;;;;;;;;;;;;5056041;28;19921;-82
2022/09/27 03:36:39;;;;;;;;;;;;;;;;;;5038694;28;19913;-83
2022/09/27 03:39:05;;;;;;;;;;;;;;;;;;5038404;28;19927;-83
2022/09/27 03:41:30;;;;;;;;;;;;;;;;;;5055717;28;19939;-82
2022/09/27 03:43:56;;;;;;;;;;;;;;;;;;5055811;28;20245;-82
2022/09/27 03:46:22;;;;;;;;;;;;;;;;;;5055711;28;20349;-82
2022/09/27 03:48:47;;;;;;;;;;;;;;;;;;5055636;28;19917;-82
2022/09/27 03:51:12;;;;;;;;;;;;;;;;;;5056130;28;19928;-82
2022/09/27 03:53:38;;;;;;;;;;;;;;;;;;5038142;28;19983;-83
2022/09/27 03:56:03;;;;;;;;;;;;;;;;;;5054528;28;19920;-82
2022/09/27 03:58:29;;;;;;;;;;;;;;;;;;5055368;28;19921;-83
2022/09/27 04:00:54;;;;;;;;;;;;;;;;;;5055873;28;19923;-82
2022/09/27 04:03:19;;;;;;;;;;;;;;;;;;5037901;28;19917;-83
2022/09/27 04:05:45;;;;;;;;;;;;;;;;;;5037754;28;19917;-75
2022/09/27 04:08:10;;;;;;;;;;;;;;;;;;5055611;28;19917;-75
2022/09/27 04:10:36;;;;;;;;;;;;;;;;;;5055376;28;19917;-75
2022/09/27 04:13:01;;;;;;;;;;;;;;;;;;5037480;28;19923;-75
2022/09/27 04:15:26;;;;;;;;;;;;;;;;;;5055135;28;20270;-75
2022/09/27 04:17:52;;;;;;;;;;;;;;;;;;5055160;28;19920;-75
2022/09/27 04:20:17;;;;;;;;;;;;;;;;;;5055280;28;19923;-76
2022/09/27 04:22:44;;;;;;;;;;;;;;;;;;5055176;28;19917;-76
2022/09/27 04:25:09;;;;;;;;;;;;;;;;;;5037307;28;19939;-76
2022/09/27 04:27:35;;;;;;;;;;;;;;;;;;5037611;28;19916;-76
2022/09/27 04:30:00;;;;;;;;;;;;;;;;;;5055132;28;20338;-76
2022/09/27 04:32:26;;;;;;;;;;;;;;;;;;5068456;28;19916;-76
2022/09/27 04:37:35;;;;;;;;;;;;;;;;;;5074090;28;19923;-76
2022/09/27 04:40:01;;;;;;;;;;;;;;;;;;5056083;28;19998;-75
2022/09/27 04:42:27;;;;;;;;;;;;;;;;;;5073012;28;19927;-76
2022/09/27 04:44:52;;;;;;;;;;;;;;;;;;5072206;28;19916;-75
2022/09/27 04:47:19;;;;;;;;;;;;;;;;;;5073335;28;19920;-75
2022/09/27 04:49:45;;;;;;;;;;;;;;;;;;5054534;28;20321;-76
2022/09/27 04:52:11;;;;;;;;;;;;;;;;;;5067439;28;19969;-76
2022/09/27 04:54:36;;;;;;;;;;;;;;;;;;5049742;28;19975;-76
2022/09/27 04:57:02;;;;;;;;;;;;;;;;;;5068856;28;19951;-75
2022/09/27 04:59:27;;;;;;;;;;;;;;;;;;5085934;28;20014;-77
2022/09/27 05:01:53;;;;;;;;;;;;;;;;;;5087007;28;20039;-75
2022/09/27 05:04:23;;;;;;;;;;;;;;;;;;5087597;28;20298;-76
2022/09/27 05:06:49;;;;;;;;;;;;;;;;;;5091916;28;20390;-75
2022/09/27 05:09:14;;;;;;;;;;;;;;;;;;5095763;28;20011;-77
2022/09/27 05:11:40;;;;;;;;;;;;;;;;;;5094276;28;20495;-76
2022/09/27 05:14:06;;;;;;;;;;;;;;;;;;5094384;28;20065;-76
2022/09/27 05:16:32;;;;;;;;;;;;;;;;;;5093426;28;19920;-75
2022/09/27 05:18:57;;;;;;;;;;;;;;;;;;5093539;28;20025;-74
2022/09/27 05:21:25;;;;;;;;;;;;;;;;;;5084467;28;20355;-76
2022/09/27 05:23:52;;;;;;;;;;;;;;;;;;5092956;28;20013;-76
2022/09/27 05:26:18;;;;;;;;;;;;;;;;;;5093325;28;19920;-74
2022/09/27 05:28:44;;;;;;;;;;;;;;;;;;5094713;28;19923;-75
2022/09/27 05:31:12;;;;;;;;;;;;;;;;;;5093987;28;19931;-75
2022/09/27 05:33:37;;;;;;;;;;;;;;;;;;5095545;28;19927;-75
2022/09/27 05:36:03;;;;;;;;;;;;;;;;;;5095915;28;19920;-76
2022/09/27 05:38:29;;;;;;;;;;;;;;;;;;5095603;28;19927;-75
2022/09/27 05:40:54;;;;;;;;;;;;;;;;;;5095675;28;19931;-75
2022/09/27 05:43:20;;;;;;;;;;;;;;;;;;5097011;28;20303;-75
2022/09/27 05:45:45;;;;;;;;;;;;;;;;;;5095700;28;19921;-75
2022/09/27 05:48:12;;;;;;;;;;;;;;;;;;5092557;28;19920;-77
2022/09/27 05:50:38;;;;;;;;;;;;;;;;;;5094887;28;20328;-76
2022/09/27 05:53:12;;;;;;;;;;;;;;;;;;5097594;28;19920;-75
2022/09/27 05:55:37;;;;;;;;;;;;;;;;;;5093602;28;19952;-74
2022/09/27 05:58:04;;;;;;;;;;;;;;;;;;5083056;28;19928;-78
2022/09/27 06:00:29;;;;;;;;;;;;;;;;;;5071174;28;19986;-76
2022/09/27 06:02:58;;;;;;;;;;;;;;;;;;5070069;28;19920;-77
2022/09/27 06:05:24;;;;;;;;;;;;;;;;;;5053757;28;19947;-77
2022/09/27 06:07:50;;;;;;;;;;;;;;;;;;5071706;28;19912;-77
2022/09/27 06:10:16;;;;;;;;;;;;;;;;;;5077322;28;19932;-78
2022/09/27 06:12:41;;;;;;;;;;;;;;;;;;5078383;28;19916;-76
2022/09/27 06:15:07;;;;;;;;;;;;;;;;;;5072581;28;19916;-78
2022/09/27 06:17:33;;;;;;;;;;;;;;;;;;5072763;28;19916;-77
2022/09/27 06:19:58;;;;;;;;;;;;;;;;;;5072455;28;19966;-78
2022/09/27 06:22:23;;;;;;;;;;;;;;;;;;5070089;28;20085;-77
2022/09/27 06:24:50;;;;;;;;;;;;;;;;;;5073939;28;19965;-77
2022/09/27 06:27:16;;;;;;;;;;;;;;;;;;5072006;28;19916;-77
2022/09/27 06:29:41;;;;;;;;;;;;;;;;;;5071247;28;19924;-77
2022/09/27 06:32:06;;;;;;;;;;;;;;;;;;5077024;28;19916;-77
2022/09/27 06:34:32;;;;;;;;;;;;;;;;;;5073582;28;19928;-78
2022/09/27 06:36:57;;;;;;;;;;;;;;;;;;5076179;28;20325;-77
2022/09/27 06:39:22;;;;;;;;;;;;;;;;;;5075427;28;19923;-77
2022/09/27 06:41:48;;;;;;;;;;;;;;;;;;5076569;28;20014;-76
2022/09/27 06:44:13;;;;;;;;;;;;;;;;;;5074510;28;20054;-76
2022/09/27 06:46:38;;;;;;;;;;;;;;;;;;5075240;28;20393;-76
2022/09/27 06:49:05;;;;;;;;;;;;;;;;;;5074181;28;19921;-76
2022/09/27 06:51:30;;;;;;;;;;;;;;;;;;5075521;28;20337;-76
2022/09/27 06:53:55;;;;;;;;;;;;;;;;;;5075632;28;19921;-77
2022/09/27 06:56:21;;;;;;;;;;;;;;;;;;5074654;28;19936;-75
2022/09/27 07:01:31;;;;;;;;;;;;;;;;;;5073618;28;19946;-90
2022/09/27 07:04:00;;;;;;;;;;;;;;;;;;5077640;28;20289;-82
2022/09/27 07:06:25;;;;;;;;;;;;;;;;;;5056698;28;20019;-79
2022/09/27 07:08:51;;;;;;;;;;;;;;;;;;5042902;28;20219;-79
2022/09/27 07:11:17;;;;;;;;;;;;;;;;;;5073604;28;19927;-79
2022/09/27 07:13:43;;;;;;;;;;;;;;;;;;5076684;28;20330;-79
2022/09/27 07:16:12;;;;;;;;;;;;;;;;;;5078930;28;19917;-80
2022/09/27 07:18:38;;;;;;;;;;;;;;;;;;5077035;28;19928;-79
2022/09/27 07:21:03;;;;;;;;;;;;;;;;;;5076034;28;19921;-78
2022/09/27 07:23:30;;;;;;;;;;;;;;;;;;5059015;28;19916;-77
2022/09/27 07:25:55;;;;;;;;;;;;;;;;;;5077299;28;20288;-78
2022/09/27 07:28:20;;;;;;;;;;;;;;;;;;5074926;28;19974;-77
2022/09/27 07:30:45;;;;;;;;;;;;;;;;;;5076933;28;19992;-78
2022/09/27 07:33:11;;;;;;;;;;;;;;;;;;5075479;28;19920;-76
2022/09/27 07:35:40;;;;;;;;;;;;;;;;;;5056908;28;20264;-78
2022/09/27 07:38:07;;;;;;;;;;;;;;;;;;5053244;28;19966;-78
2022/09/27 07:40:32;;;;;;;;;;;;;;;;;;5072889;28;19917;-79
2022/09/27 07:42:58;;;;;;;;;;;;;;;;;;5069777;28;19916;-78
2022/09/27 07:45:24;;;;;;;;;;;;;;;;;;5054237;28;19916;-77
2022/09/27 07:47:49;;;;;;;;;;;;;;;;;;5066590;28;19934;-77
2022/09/27 07:50:14;;;;;;;;;;;;;;;;;;5067050;28;19920;-76
2022/09/27 07:52:40;;;;;;;;;;;;;;;;;;5082362;28;19931;-77
2022/09/27 07:55:06;;;;;;;;;;;;;;;;;;5054532;28;19978;-79
2022/09/27 07:57:31;;;;;;;;;;;;;;;;;;5065533;28;19924;-77
2022/09/27 07:59:56;;;;;;;;;;;;;;;;;;5073956;28;19921;-77
2022/09/27 08:02:25;;;;;;;;;;;;;;;;;;5055763;28;20311;-79
2022/09/27 08:04:51;;;;;;;;;;;;;;;;;;5042761;28;20342;-78
2022/09/27 08:07:19;;;;;;;;;;;;;;;;;;5065298;28;19951;-77
2022/09/27 08:09:45;;;;;;;;;;;;;;;;;;5071081;28;20199;-77
2022/09/27 08:12:10;;;;;;;;;;;;;;;;;;5067258;28;20048;-78
2022/09/27 08:14:35;;;;;;;;;;;;;;;;;;5048438;28;20191;-79
2022/09/27 08:17:01;;;;;;;;;;;;;;;;;;5048120;28;19916;-75
2022/09/27 08:19:26;;;;;;;;;;;;;;;;;;5048313;28;19956;-79
2022/09/27 08:21:53;;;;;;;;;;;;;;;;;;5048085;28;20307;-76
2022/09/27 08:24:20;;;;;;;;;;;;;;;;;;5031052;28;19923;-76
2022/09/27 08:26:45;;;;;;;;;;;;;;;;;;5049715;28;19921;-77
2022/09/27 08:29:11;;;;;;;;;;;;;;;;;;5041847;28;19923;-78
2022/09/27 08:31:37;;;;;;;;;;;;;;;;;;5071137;28;19917;-78
2022/09/27 08:34:03;;;;;;;;;;;;;;;;;;5071324;28;19950;-79
2022/09/27 08:36:30;;;;;;;;;;;;;;;;;;5068311;28;20023;-78
2022/09/27 08:38:58;;;;;;;;;;;;;;;;;;5074077;28;19928;-77
2022/09/27 08:41:38;;;;;;;;;;;;;;;;;;5072153;28;20002;-79
2022/09/27 08:44:14;;;;;;;;;;;;;;;;;;5073645;28;19917;-78
2022/09/27 08:46:39;;;;;;;;;;;;;;;;;;5055912;28;20233;-80
2022/09/27 08:49:08;;;;;;;;;;;;;;;;;;5064903;28;19929;-81
2022/09/27 08:51:35;;;;;;;;;;;;;;;;;;5044388;28;20302;-78
2022/09/27 08:54:18;;;;;;;;;;;;;;;;;;5070150;28;19920;-79
2022/09/27 08:56:44;;;;;;;;;;;;;;;;;;5074355;28;19970;-80
2022/09/27 08:59:15;;;;;;;;;;;;;;;;;;5092683;28;19964;-77
2022/09/27 09:01:40;;;;;;;;;;;;;;;;;;5076652;28;20064;-75
2022/09/27 09:04:07;;;;;;;;;;;;;;;;;;5089821;28;20033;-77
2022/09/27 09:07:00;;;;;;;;;;;;;;;;;;5072907;28;19928;-76
2022/09/27 09:09:37;;;;;;;;;;;;;;;;;;5076088;28;19924;-76
2022/09/27 09:15:16;;;;;;;;;;;;;;;;;;5077989;28;20367;-77
2022/09/27 09:17:57;;;;;;;;;;;;;;;;;;5087019;28;19928;-77
2022/09/27 09:20:41;;;;;;;;;;;;;;;;;;5089801;28;19916;-78
2022/09/27 09:23:13;;;;;;;;;;;;;;;;;;5093091;28;19983;-78
2022/09/27 09:25:39;;;;;;;;;;;;;;;;;;5092377;28;19920;-77
2022/09/27 09:28:04;;;;;;;;;;;;;;;;;;5090812;28;19916;-77
2022/09/27 09:30:48;;;;;;;;;;;;;;;;;;5095034;28;19920;-77
2022/09/27 09:33:13;;;;;;;;;;;;;;;;;;5073476;28;19929;-78
2022/09/27 09:35:38;;;;;;;;;;;;;;;;;;5073467;28;20315;-77
2022/09/27 09:38:05;;;;;;;;;;;;;;;;;;5075132;28;19971;-78
2022/09/27 09:40:37;;;;;;;;;;;;;;;;;;5093264;28;20272;-76
2022/09/27 09:43:06;;;;;;;;;;;;;;;;;;5113638;28;20533;-77
2022/09/27 09:45:59;;;;;;;;;;;;;;;;;;5095870;28;19920;-77
2022/09/27 09:48:24;;;;;;;;;;;;;;;;;;5094455;28;19920;-78
2022/09/27 09:50:57;;;;;;;;;;;;;;;;;;5112882;28;20351;-77
2022/09/27 09:53:32;;;;;;;;;;;;;;;;;;5090506;28;19975;-76
2022/09/27 09:56:31;;;;;;;;;;;;;;;;;;5100353;28;20336;-78
2022/09/27 09:59:01;;;;;;;;;;;;;;;;;;5038809;28;20011;-76
2022/09/27 10:01:38;;;;;;;;;;;;;;;;;;5076175;28;20346;-76
2022/09/27 10:04:03;;;;;;;;;;;;;;;;;;5059343;28;19970;-77
2022/09/27 10:06:29;;;;;;;;;;;;;;;;;;5073994;28;19939;-77
2022/09/27 10:08:54;;;;;;;;;;;;;;;;;;5071198;28;20311;-77
2022/09/27 10:11:21;;;;;;;;;;;;;;;;;;5061022;28;20003;-75
2022/09/27 10:13:47;;;;;;;;;;;;;;;;;;5053013;28;20359;-75
2022/09/27 10:16:14;;;;;;;;;;;;;;;;;;5040313;28;19920;-76
2022/09/27 10:18:40;;;;;;;;;;;;;;;;;;5054553;28;20431;-77
2022/09/27 10:21:09;;;;;;;;;;;;;;;;;;5059911;28;20354;-79
2022/09/27 10:23:36;;;;;;;;;;;;;;;;;;5059706;28;19921;-78
2022/09/27 10:26:02;;;;;;;;;;;;;;;;;;5074746;28;20341;-75
2022/09/27 10:28:37;;;;;;;;;;;;;;;;;;5057434;28;19939;-77
2022/09/27 10:31:04;;;;;;;;;;;;;;;;;;5074558;28;19916;-77
2022/09/27 10:33:30;;;;;;;;;;;;;;;;;;5056189;28;19931;-76
2022/09/27 10:35:56;;;;;;;;;;;;;;;;;;5073775;28;19916;-78
2022/09/27 10:38:22;;;;;;;;;;;;;;;;;;5073460;28;20325;-79
2022/09/27 10:40:49;;;;;;;;;;;;;;;;;;5061067;28;19970;-80
2022/09/27 10:43:34;;;;;;;;;;;;;;;;;;5044438;28;19987;-77
2022/09/27 10:46:01;;;;;;;;;;;;;;;;;;5049379;28;19924;-77
2022/09/27 10:48:27;;;;;;;;;;;;;;;;;;5051020;28;19924;-77
2022/09/27 10:50:57;;;;;;;;;;;;;;;;;;5053258;28;19916;-75
2022/09/27 10:53:23;;;;;;;;;;;;;;;;;;5069673;28;19967;-76
2022/09/27 10:55:50;;;;;;;;;;;;;;;;;;5068505;28;19938;-77
2022/09/27 10:58:17;;;;;;;;;;;;;;;;;;5051886;28;19980;-78
2022/09/27 11:00:42;;;;;;;;;;;;;;;;;;5048695;28;19920;-79
2022/09/27 11:03:14;;;;;;;;;;;;;;;;;;5067132;28;20000;-79
2022/09/27 11:05:39;;;;;;;;;;;;;;;;;;5066569;28;20333;-78
2022/09/27 11:08:17;;;;;;;;;;;;;;;;;;5068594;28;19956;-79
2022/09/27 11:10:42;;;;;;;;;;;;;;;;;;5067006;28;20422;-76
2022/09/27 11:13:07;;;;;;;;;;;;;;;;;;5050669;28;20003;-77
2022/09/27 11:15:39;;;;;;;;;;;;;;;;;;5069124;28;20273;-78
2022/09/27 11:18:08;;;;;;;;;;;;;;;;;;5067935;28;19920;-78
2022/09/27 11:20:56;;;;;;;;;;;;;;;;;;5054479;28;19964;-78
2022/09/27 11:23:25;;;;;;;;;;;;;;;;;;5051483;28;19920;-78
2022/09/27 11:25:54;;;;;;;;;;;;;;;;;;5075568;28;19920;-77
2022/09/27 11:28:19;;;;;;;;;;;;;;;;;;5074696;28;19921;-75
2022/09/27 11:30:48;;;;;;;;;;;;;;;;;;5072393;28;19974;-77
2022/09/27 11:33:22;;;;;;;;;;;;;;;;;;5050400;28;20326;-77
2022/09/27 11:35:57;;;;;;;;;;;;;;;;;;5063075;28;19924;-78
2022/09/27 11:38:28;;;;;;;;;;;;;;;;;;5066785;28;19921;-77
2022/09/27 11:41:12;;;;;;;;;;;;;;;;;;5048034;28;19920;-77
2022/09/27 11:43:56;;;;;;;;;;;;;;;;;;5067498;28;19920;-77
2022/09/27 11:46:29;;;;;;;;;;;;;;;;;;5050772;28;19916;-76
2022/09/27 11:48:54;;;;;;;;;;;;;;;;;;5049361;28;20261;-77
2022/09/27 11:51:20;;;;;;;;;;;;;;;;;;5068445;28;19927;-76
2022/09/27 11:53:48;;;;;;;;;;;;;;;;;;5049771;28;20099;-76
2022/09/27 11:56:26;;;;;;;;;;;;;;;;;;5032608;28;20297;-76
2022/09/27 11:58:57;;;;;;;;;;;;;;;;;;5050049;28;20018;-77
2022/09/27 12:01:29;;;;;;;;;;;;;;;;;;5050308;28;19961;-76
2022/09/27 12:04:14;;;;;;;;;;;;;;;;;;5068985;28;19967;-77
2022/09/27 12:06:49;;;;;;;;;;;;;;;;;;5039146;28;19923;-76
2022/09/27 12:09:15;;;;;;;;;;;;;;;;;;5053750;28;19916;-76
2022/09/27 12:11:40;;;;;;;;;;;;;;;;;;5054670;28;19923;-75
2022/09/27 12:14:09;;;;;;;;;;;;;;;;;;5063323;28;19921;-76
2022/09/27 12:16:34;;;;;;;;;;;;;;;;;;5052453;28;20003;-76
2022/09/27 12:18:59;;;;;;;;;;;;;;;;;;5068258;28;20012;-76
2022/09/27 12:21:25;;;;;;;;;;;;;;;;;;5068649;28;19912;-75
2022/09/27 12:23:59;;;;;;;;;;;;;;;;;;5069034;28;19917;-75
2022/09/27 12:26:40;;;;;;;;;;;;;;;;;;5069845;28;19946;-76
2022/09/27 12:29:22;;;;;;;;;;;;;;;;;;5069353;28;19916;-76
2022/09/27 12:31:53;;;;;;;;;;;;;;;;;;5070062;28;19917;-76
2022/09/27 12:34:19;;;;;;;;;;;;;;;;;;5054463;28;19978;-76
2022/09/27 12:36:47;;;;;;;;;;;;;;;;;;5070141;28;19939;-75
2022/09/27 12:39:15;;;;;;;;;;;;;;;;;;5069869;28;20322;-75
2022/09/27 12:41:42;;;;;;;;;;;;;;;;;;5054318;28;19917;-74
2022/09/27 12:44:08;;;;;;;;;;;;;;;;;;5069621;28;19956;-75
2022/09/27 12:46:37;;;;;;;;;;;;;;;;;;5069345;28;20195;-74
2022/09/27 12:49:04;;;;;;;;;;;;;;;;;;5052939;28;19923;-75
2022/09/27 12:51:36;;;;;;;;;;;;;;;;;;5053290;28;20415;-74
2022/09/27 12:54:11;;;;;;;;;;;;;;;;;;5069390;28;19924;-74
2022/09/27 12:56:56;;;;;;;;;;;;;;;;;;5052843;28;20296;-74
2022/09/27 12:59:40;;;;;;;;;;;;;;;;;;5054414;28;19952;-74
2022/09/27 13:02:12;;;;;;;;;;;;;;;;;;5054579;28;19924;-74
2022/09/27 13:04:40;;;;;;;;;;;;;;;;;;5054108;28;19916;-73
2022/09/27 13:07:16;;;;;;;;;;;;;;;;;;5053646;28;19963;-75
2022/09/27 13:09:41;;;;;;;;;;;;;;;;;;5054117;28;19924;-78
2022/09/27 13:12:09;;;;;;;;;;;;;;;;;;5053328;28;19916;-75
2022/09/27 13:14:38;;;;;;;;;;;;;;;;;;5054014;28;19923;-75
2022/09/27 13:17:03;;;;;;;;;;;;;;;;;;5069421;28;19916;-75
2022/09/27 13:19:35;;;;;;;;;;;;;;;;;;5069502;28;19917;-75
2022/09/27 13:22:20;;;;;;;;;;;;;;;;;;5053911;28;19917;-75
2022/09/27 13:24:46;;;;;;;;;;;;;;;;;;5055201;28;19917;-75
2022/09/27 13:27:26;;;;;;;;;;;;;;;;;;5070133;28;19975;-75
2022/09/27 13:30:12;;;;;;;;;;;;;;;;;;5056707;28;20336;-76
2022/09/27 13:32:37;;;;;;;;;;;;;;;;;;5058181;28;20253;-76
2022/09/27 13:35:32;;;;;;;;;;;;;;;;;;5073264;28;19917;-75
2022/09/27 13:37:58;;;;;;;;;;;;;;;;;;5052992;28;19924;-76
2022/09/27 13:40:26;;;;;;;;;;;;;;;;;;5073120;28;19916;-76
2022/09/27 13:42:54;;;;;;;;;;;;;;;;;;5057736;28;19916;-77
2022/09/27 13:45:46;;;;;;;;;;;;;;;;;;5057619;28;19948;-78
2022/09/27 13:48:31;;;;;;;;;;;;;;;;;;5049223;28;20332;-78
2022/09/27 13:51:04;;;;;;;;;;;;;;;;;;5053322;28;19944;-75
2022/09/27 13:53:30;;;;;;;;;;;;;;;;;;5072656;28;19917;-76
2022/09/27 13:55:56;;;;;;;;;;;;;;;;;;5072799;28;19917;-78
2022/09/27 13:58:26;;;;;;;;;;;;;;;;;;5081795;28;20264;-74
2022/09/27 14:00:53;;;;;;;;;;;;;;;;;;5079529;28;19920;-76
2022/09/27 14:03:27;;;;;;;;;;;;;;;;;;5079611;28;19966;-75
2022/09/27 14:05:57;;;;;;;;;;;;;;;;;;5078652;28;19920;-76
2022/09/27 14:08:26;;;;;;;;;;;;;;;;;;5062806;28;19946;-75
2022/09/27 14:10:52;;;;;;;;;;;;;;;;;;5079628;28;20011;-74
2022/09/27 14:13:19;;;;;;;;;;;;;;;;;;5079023;28;19948;-75
2022/09/27 14:15:44;;;;;;;;;;;;;;;;;;5079623;28;20317;-75
2022/09/27 14:18:10;;;;;;;;;;;;;;;;;;5078952;28;19916;-75
2022/09/27 14:20:40;;;;;;;;;;;;;;;;;;5097075;28;19916;-81
2022/09/27 14:23:05;;;;;;;;;;;;;;;;;;5062855;28;19916;-83
2022/09/27 14:25:31;;;;;;;;;;;;;;;;;;5062240;28;19917;-82
2022/09/27 14:27:58;;;;;;;;;;;;;;;;;;5078988;28;19916;-81
2022/09/27 14:30:24;;;;;;;;;;;;;;;;;;5079547;28;19916;-81
2022/09/27 14:32:50;;;;;;;;;;;;;;;;;;5079034;28;19965;-83
2022/09/27 14:38:01;;;;;;;;;;;;;;;;;;5081510;28;19955;-81
2022/09/27 14:40:27;;;;;;;;;;;;;;;;;;5078296;28;20253;-85
2022/09/27 14:42:53;;;;;;;;;;;;;;;;;;5079054;28;19916;-85
2022/09/27 14:45:22;;;;;;;;;;;;;;;;;;5062307;28;19916;-84
2022/09/27 14:47:48;;;;;;;;;;;;;;;;;;5078778;28;19917;-84
2022/09/27 14:50:30;;;;;;;;;;;;;;;;;;5062137;28;19973;-84
2022/09/27 14:52:58;;;;;;;;;;;;;;;;;;5062188;28;20237;-85
2022/09/27 14:55:24;;;;;;;;;;;;;;;;;;5062331;28;19916;-84
2022/09/27 14:57:50;;;;;;;;;;;;;;;;;;5078444;28;20386;-84
2022/09/27 15:00:15;;;;;;;;;;;;;;;;;;5078759;28;19916;-84
2022/09/27 15:02:41;;;;;;;;;;;;;;;;;;5096314;28;19916;-84
2022/09/27 15:05:13;;;;;;;;;;;;;;;;;;5078569;28;19916;-84
2022/09/27 15:07:38;;;;;;;;;;;;;;;;;;5078623;28;19916;-84
2022/09/27 15:10:04;;;;;;;;;;;;;;;;;;5061961;28;19916;-85
2022/09/27 15:12:29;;;;;;;;;;;;;;;;;;5096589;28;19923;-85
2022/09/27 15:14:56;;;;;;;;;;;;;;;;;;5061754;28;19916;-85
2022/09/27 15:17:22;;;;;;;;;;;;;;;;;;5095939;28;20302;-83
2022/09/27 15:19:57;;;;;;;;;;;;;;;;;;5096437;28;19916;-82
2022/09/27 15:22:30;;;;;;;;;;;;;;;;;;5078574;28;19981;-83
2022/09/27 15:25:02;;;;;;;;;;;;;;;;;;5078254;28;19920;-83
2022/09/27 15:27:28;;;;;;;;;;;;;;;;;;5078314;28;19918;-82
2022/09/27 15:29:54;;;;;;;;;;;;;;;;;;5078407;28;19920;-82
2022/09/27 15:32:20;;;;;;;;;;;;;;;;;;5061848;28;20348;-83
2022/09/27 15:34:46;;;;;;;;;;;;;;;;;;5078738;28;19923;-83
2022/09/27 15:37:34;;;;;;;;;;;;;;;;;;5085999;28;19916;-85
2022/09/27 15:40:16;;;;;;;;;;;;;;;;;;5090115;28;19916;-84
2022/09/27 15:42:54;;;;;;;;;;;;;;;;;;5115510;28;19923;-87
2022/09/27 15:45:36;;;;;;;;;;;;;;;;;;5076173;28;19943;-84
2022/09/27 15:48:10;;;;;;;;;;;;;;;;;;5084608;28;19917;-84
2022/09/27 15:50:36;;;;;;;;;;;;;;;;;;5091283;28;19916;-84
2022/09/27 15:53:02;;;;;;;;;;;;;;;;;;5106107;28;19923;-87
2022/09/27 15:55:28;;;;;;;;;;;;;;;;;;5085142;28;19944;-86
2022/09/27 15:58:01;;;;;;;;;;;;;;;;;;5086370;28;19920;-86
2022/09/27 16:00:26;;;;;;;;;;;;;;;;;;5106171;28;19947;-87
2022/09/27 16:02:52;;;;;;;;;;;;;;;;;;5082790;28;19916;-87
2022/09/27 16:05:18;;;;;;;;;;;;;;;;;;5101277;28;19916;-87
2022/09/27 16:07:43;;;;;;;;;;;;;;;;;;5071071;28;19937;-86
2022/09/27 16:10:18;;;;;;;;;;;;;;;;;;5087140;28;19916;-86
2022/09/27 16:12:44;;;;;;;;;;;;;;;;;;5099850;28;19916;-85
2022/09/27 16:15:12;;;;;;;;;;;;;;;;;;5109286;28;20382;-84
2022/09/27 16:17:39;;;;;;;;;;;;;;;;;;5094260;28;19960;-85
2022/09/27 16:20:04;;;;;;;;;;;;;;;;;;5097645;28;19916;-86
2022/09/27 16:22:30;;;;;;;;;;;;;;;;;;5094235;28;19977;-85
2022/09/27 16:24:55;;;;;;;;;;;;;;;;;;5110102;28;19923;-84
2022/09/27 16:27:26;;;;;;;;;;;;;;;;;;5096715;28;19923;-87
2022/09/27 16:29:52;;;;;;;;;;;;;;;;;;5115605;28;20364;-85
2022/09/27 16:32:18;;;;;;;;;;;;;;;;;;5115541;28;19916;-86
2022/09/27 16:34:43;;;;;;;;;;;;;;;;;;5097794;28;19916;-87
2022/09/27 16:37:10;;;;;;;;;;;;;;;;;;5113473;28;19916;-87
2022/09/27 16:39:35;;;;;;;;;;;;;;;;;;5109973;28;19927;-86
2022/09/27 16:42:04;;;;;;;;;;;;;;;;;;5102870;28;19916;-87
2022/09/27 16:44:30;;;;;;;;;;;;;;;;;;5081512;28;19923;-87
2022/09/27 16:46:55;;;;;;;;;;;;;;;;;;5104028;28;19916;-86
2022/09/27 16:52:04;;;;;;;;;;;;;;;;;;5098821;28;20068;-87
2022/09/27 16:54:30;;;;;;;;;;;;;;;;;;5082736;28;20324;-86
2022/09/27 16:56:58;;;;;;;;;;;;;;;;;;5079262;28;20256;-86
2022/09/27 16:59:23;;;;;;;;;;;;;;;;;;5065486;28;19922;-85
2022/09/27 17:01:49;;;;;;;;;;;;;;;;;;5099249;28;19987;-85
2022/09/27 17:04:14;;;;;;;;;;;;;;;;;;5099443;28;19956;-87
2022/09/27 17:06:40;;;;;;;;;;;;;;;;;;5097059;28;19917;-87
2022/09/27 17:09:05;;;;;;;;;;;;;;;;;;5097732;28;19916;-86
2022/09/27 17:11:30;;;;;;;;;;;;;;;;;;5069032;28;19938;-86